createdAt,value
2023-05-22T00:01:45.319Z,11.99
2023-05-22T00:04:13.477Z,12.00
2023-05-22T00:06:43.809Z,11.98
2023-05-22T00:09:10.569Z,11.99
2023-05-22T00:11:37.195Z,11.98
2023-05-22T00:14:03.888Z,11.94
2023-05-22T00:16:30.683Z,11.91
2023-05-22T00:18:57.738Z,11.86
2023-05-22T00:21:24.689Z,11.82
2023-05-22T00:23:51.329Z,11.80
2023-05-22T00:26:17.978Z,11.74
2023-05-22T00:28:44.618Z,11.73
2023-05-22T00:31:11.502Z,11.72
2023-05-22T00:33:38.380Z,11.71
2023-05-22T00:36:06.006Z,11.68
2023-05-22T00:38:34.291Z,11.68
2023-05-22T00:41:02.805Z,11.64
2023-05-22T00:43:29.549Z,11.55
2023-05-22T00:45:56.407Z,11.47
2023-05-22T00:48:23.642Z,11.35
2023-05-22T00:50:50.889Z,11.35
2023-05-22T00:53:19.652Z,11.36
2023-05-22T00:55:46.308Z,11.29
2023-05-22T00:58:19.287Z,11.26
2023-05-22T01:00:49.117Z,11.18
2023-05-22T01:03:16.313Z,11.07
2023-05-22T01:05:43.804Z,10.87
2023-05-22T01:08:10.618Z,10.64
2023-05-22T01:10:38.181Z,10.44
2023-05-22T01:13:19.105Z,10.26
2023-05-22T01:16:04.911Z,10.01
2023-05-22T01:18:42.610Z,9.86
2023-05-22T01:21:13.662Z,9.76
2023-05-22T01:24:18.287Z,9.83
2023-05-22T01:27:08.303Z,10.03
2023-05-22T01:30:07.211Z,10.16
2023-05-22T01:32:34.425Z,10.27
2023-05-22T01:35:01.931Z,10.33
2023-05-22T01:37:28.699Z,10.37
2023-05-22T01:39:55.865Z,10.43
2023-05-22T01:42:22.748Z,10.44
2023-05-22T01:44:49.452Z,10.25
2023-05-22T01:47:16.965Z,9.97
2023-05-22T01:49:43.576Z,9.72
2023-05-22T01:52:15.563Z,9.54
2023-05-22T01:54:52.760Z,9.40
2023-05-22T01:57:33.122Z,9.29
2023-05-22T02:00:09.747Z,9.21
2023-05-22T02:02:49.568Z,9.11
2023-05-22T02:05:18.446Z,9.04
2023-05-22T02:07:45.515Z,8.99
2023-05-22T02:10:12.467Z,8.96
2023-05-22T02:12:39.153Z,8.94
2023-05-22T02:15:07.110Z,8.94
2023-05-22T02:17:40.634Z,8.93
2023-05-22T02:20:15.123Z,8.92
2023-05-22T02:22:46.797Z,8.90
2023-05-22T02:25:14.959Z,8.89
2023-05-22T02:27:42.913Z,8.90
2023-05-22T02:30:10.173Z,8.92
2023-05-22T02:32:37.555Z,8.95
2023-05-22T02:35:04.993Z,8.96
2023-05-22T02:37:31.745Z,8.96
2023-05-22T02:39:59.070Z,8.99
2023-05-22T02:42:26.076Z,9.02
2023-05-22T02:44:53.735Z,9.07
2023-05-22T02:47:20.481Z,9.10
2023-05-22T02:49:47.390Z,9.14
2023-05-22T02:52:14.694Z,9.18
2023-05-22T02:54:41.952Z,9.23
2023-05-22T02:57:08.651Z,9.28
2023-05-22T02:59:36.832Z,9.33
2023-05-22T03:02:03.866Z,9.38
2023-05-22T03:04:30.731Z,9.43
2023-05-22T03:06:57.424Z,9.50
2023-05-22T03:09:25.543Z,9.56
2023-05-22T03:11:52.188Z,9.62
2023-05-22T03:14:18.819Z,9.67
2023-05-22T03:16:45.513Z,9.73
2023-05-22T03:19:15.910Z,9.81
2023-05-22T03:21:46.038Z,9.92
2023-05-22T03:24:13.196Z,10.03
2023-05-22T03:26:40.008Z,10.13
2023-05-22T03:29:08.773Z,10.21
2023-05-22T03:31:36.176Z,10.29
2023-05-22T03:34:08.729Z,10.39
2023-05-22T03:36:37.110Z,10.50
2023-05-22T03:39:04.134Z,10.59
2023-05-22T03:41:33.001Z,10.68
2023-05-22T03:43:59.978Z,10.78
2023-05-22T03:46:27.182Z,10.86
2023-05-22T03:48:54.118Z,10.92
2023-05-22T03:51:20.759Z,11.00
2023-05-22T03:53:47.467Z,11.07
2023-05-22T03:56:14.588Z,11.16
2023-05-22T03:58:41.287Z,11.28
2023-05-22T04:01:10.109Z,11.42
2023-05-22T04:03:37.911Z,11.55
2023-05-22T04:06:05.895Z,11.68
2023-05-22T04:08:32.726Z,11.82
2023-05-22T04:11:00.446Z,11.99
2023-05-22T04:13:27.371Z,12.13
2023-05-22T04:15:54.149Z,12.29
2023-05-22T04:18:20.991Z,12.43
2023-05-22T04:20:47.874Z,12.60
2023-05-22T04:23:14.563Z,12.76
2023-05-22T04:25:41.291Z,12.91
2023-05-22T04:28:09.446Z,13.06
2023-05-22T04:30:40.428Z,13.22
2023-05-22T04:33:08.554Z,13.38
2023-05-22T04:35:36.165Z,13.51
2023-05-22T04:38:06.594Z,13.66
2023-05-22T04:40:38.092Z,13.79
2023-05-22T04:43:05.208Z,13.94
2023-05-22T04:45:33.026Z,14.07
2023-05-22T04:48:02.588Z,14.19
2023-05-22T04:50:33.054Z,14.34
2023-05-22T04:53:00.056Z,14.48
2023-05-22T04:55:26.850Z,14.60
2023-05-22T04:57:53.763Z,14.73
2023-05-22T05:00:26.389Z,14.86
2023-05-22T05:02:53.595Z,14.93
2023-05-22T05:05:20.591Z,15.09
2023-05-22T05:07:50.057Z,15.22
2023-05-22T05:10:17.735Z,15.37
2023-05-22T05:12:44.429Z,15.44
2023-05-22T05:15:11.225Z,15.54
2023-05-22T05:17:38.430Z,15.62
2023-05-22T05:20:07.642Z,15.68
2023-05-22T05:22:34.672Z,15.73
2023-05-22T05:25:03.768Z,15.83
2023-05-22T05:27:30.760Z,15.93
2023-05-22T05:29:57.452Z,16.03
2023-05-22T05:32:30.427Z,16.11
2023-05-22T05:35:02.929Z,16.17
2023-05-22T05:37:50.073Z,16.26
2023-05-22T05:40:17.282Z,16.36
2023-05-22T05:42:50.153Z,16.45
2023-05-22T05:45:19.029Z,16.55
2023-05-22T05:47:45.956Z,16.66
2023-05-22T05:50:15.636Z,16.74
2023-05-22T05:52:42.951Z,16.82
2023-05-22T05:55:14.372Z,16.88
2023-05-22T05:57:41.489Z,16.98
2023-05-22T06:00:12.583Z,17.08
2023-05-22T06:02:42.303Z,17.18
2023-05-22T06:05:41.919Z,17.30
2023-05-22T06:08:32.323Z,17.39
2023-05-22T06:10:59.280Z,17.49
2023-05-22T06:13:32.695Z,17.58
2023-05-22T06:16:02.753Z,17.66
2023-05-22T06:18:31.339Z,17.76
2023-05-22T06:20:59.187Z,17.85
2023-05-22T06:23:25.999Z,17.93
2023-05-22T06:25:54.043Z,18.03
2023-05-22T06:28:21.386Z,18.10
2023-05-22T06:30:48.363Z,18.15
2023-05-22T06:33:16.802Z,18.21
2023-05-22T06:35:44.480Z,18.27
2023-05-22T06:38:12.389Z,18.33
2023-05-22T06:40:40.243Z,18.39
2023-05-22T06:43:13.260Z,18.44
2023-05-22T06:45:51.061Z,18.50
2023-05-22T06:48:36.210Z,18.57
2023-05-22T06:51:12.899Z,18.64
2023-05-22T06:53:40.746Z,18.68
2023-05-22T06:56:12.289Z,18.73
2023-05-22T06:58:54.860Z,18.82
2023-05-22T07:01:23.774Z,18.87
2023-05-22T07:04:05.192Z,18.89
2023-05-22T07:06:39.138Z,18.93
2023-05-22T07:09:06.459Z,18.97
2023-05-22T07:11:33.582Z,19.02
2023-05-22T07:14:01.472Z,19.08
2023-05-22T07:16:29.986Z,19.13
2023-05-22T07:18:57.303Z,19.14
2023-05-22T07:21:24.292Z,19.14
2023-05-22T07:23:52.443Z,19.15
2023-05-22T07:26:19.236Z,19.19
2023-05-22T07:28:51.414Z,19.28
2023-05-22T07:31:18.124Z,19.34
2023-05-22T07:33:45.448Z,19.36
2023-05-22T07:36:12.581Z,19.41
2023-05-22T07:38:41.048Z,19.47
2023-05-22T07:41:07.894Z,19.53
2023-05-22T07:43:34.734Z,19.55
2023-05-22T07:46:01.871Z,19.55
2023-05-22T07:48:33.878Z,19.57
2023-05-22T07:51:00.849Z,19.61
2023-05-22T07:53:27.574Z,19.67
2023-05-22T07:55:55.954Z,19.73
2023-05-22T07:58:24.241Z,19.79
2023-05-22T08:00:51.411Z,19.84
2023-05-22T08:03:18.818Z,19.92
2023-05-22T08:05:46.547Z,19.98
2023-05-22T08:08:13.367Z,20.04
2023-05-22T08:13:10.562Z,20.10
2023-05-22T08:15:37.197Z,20.13
2023-05-22T08:18:04.009Z,20.19
2023-05-22T08:20:30.921Z,20.27
2023-05-22T08:22:57.659Z,20.36
2023-05-22T08:25:24.330Z,20.43
2023-05-22T08:27:50.982Z,20.40
2023-05-22T08:30:17.851Z,20.37
2023-05-22T08:32:44.661Z,20.41
2023-05-22T08:35:11.442Z,20.48
2023-05-22T08:37:38.100Z,20.55
2023-05-22T08:40:06.132Z,20.59
2023-05-22T08:42:33.099Z,20.60
2023-05-22T08:45:01.189Z,20.60
2023-05-22T08:47:28.575Z,20.69
2023-05-22T08:49:55.641Z,20.79
2023-05-22T08:52:23.192Z,20.83
2023-05-22T08:54:53.197Z,20.88
2023-05-22T08:57:20.552Z,20.94
2023-05-22T08:59:47.420Z,21.01
2023-05-22T09:02:14.113Z,21.03
2023-05-22T09:04:41.222Z,21.02
2023-05-22T09:07:09.187Z,21.08
2023-05-22T09:09:39.076Z,21.17
2023-05-22T09:12:09.222Z,21.23
2023-05-22T09:14:45.135Z,21.34
2023-05-22T09:17:18.649Z,21.44
2023-05-22T09:19:48.296Z,21.49
2023-05-22T09:22:15.198Z,21.49
2023-05-22T09:24:42.536Z,21.46
2023-05-22T09:27:09.863Z,21.46
2023-05-22T09:29:49.928Z,21.48
2023-05-22T09:32:17.740Z,21.50
2023-05-22T09:34:47.940Z,21.50
2023-05-22T09:37:15.853Z,21.53
2023-05-22T09:39:47.087Z,21.58
2023-05-22T09:42:17.970Z,21.63
2023-05-22T09:44:48.765Z,21.68
2023-05-22T09:47:15.682Z,21.69
2023-05-22T09:49:43.366Z,21.67
2023-05-22T09:52:12.512Z,21.66
2023-05-22T09:54:45.647Z,21.67
2023-05-22T09:57:14.080Z,21.74
2023-05-22T09:59:40.946Z,21.80
2023-05-22T10:02:07.714Z,21.91
2023-05-22T10:04:34.575Z,22.02
2023-05-22T10:07:02.433Z,22.05
2023-05-22T10:09:31.352Z,22.05
2023-05-22T10:11:58.690Z,22.03
2023-05-22T10:14:25.499Z,22.06
2023-05-22T10:16:52.719Z,22.05
2023-05-22T10:19:19.614Z,22.09
2023-05-22T10:21:47.392Z,22.09
2023-05-22T10:24:14.023Z,22.10
2023-05-22T10:26:40.739Z,22.15
2023-05-22T10:29:11.057Z,22.29
2023-05-22T10:31:55.791Z,22.45
2023-05-22T10:34:45.364Z,22.57
2023-05-22T10:37:21.758Z,22.69
2023-05-22T10:40:02.148Z,22.78
2023-05-22T10:42:30.919Z,22.81
2023-05-22T10:45:01.373Z,22.79
2023-05-22T10:47:28.155Z,22.73
2023-05-22T10:50:06.715Z,22.63
2023-05-22T10:52:33.554Z,22.51
2023-05-22T10:55:00.460Z,22.48
2023-05-22T10:57:27.470Z,22.56
2023-05-22T11:00:09.995Z,22.65
2023-05-22T11:02:39.537Z,22.59
2023-05-22T11:05:18.612Z,22.40
2023-05-22T11:07:45.467Z,22.35
2023-05-22T11:10:12.227Z,22.41
2023-05-22T11:12:38.881Z,22.43
2023-05-22T11:15:09.864Z,22.42
2023-05-22T11:17:40.038Z,22.34
2023-05-22T11:20:12.537Z,22.21
2023-05-22T11:22:44.279Z,22.08
2023-05-22T11:25:17.931Z,22.02
2023-05-22T11:27:44.730Z,21.99
2023-05-22T11:30:11.897Z,22.02
2023-05-22T11:32:39.855Z,22.13
2023-05-22T11:35:10.061Z,22.24
2023-05-22T11:37:40.521Z,22.29
2023-05-22T11:40:08.117Z,22.18
2023-05-22T11:42:35.566Z,22.12
2023-05-22T11:45:02.836Z,22.13
2023-05-22T11:47:30.224Z,22.18
2023-05-22T11:49:57.722Z,22.24
2023-05-22T11:52:24.382Z,22.29
2023-05-22T11:54:54.156Z,22.35
2023-05-22T11:57:20.894Z,22.40
2023-05-22T11:59:47.586Z,22.47
2023-05-22T12:02:14.578Z,22.51
2023-05-22T12:04:41.414Z,22.51
2023-05-22T12:07:08.462Z,22.45
2023-05-22T12:09:35.141Z,22.35
2023-05-22T12:12:01.807Z,22.33
2023-05-22T12:14:29.202Z,22.45
2023-05-22T12:16:55.926Z,22.64
2023-05-22T12:19:22.712Z,22.83
2023-05-22T12:21:50.166Z,22.94
2023-05-22T12:24:21.636Z,22.93
2023-05-22T12:26:52.644Z,22.86
2023-05-22T12:29:21.721Z,22.80
2023-05-22T12:31:48.438Z,22.76
2023-05-22T12:34:16.240Z,22.69
2023-05-22T12:36:43.660Z,22.62
2023-05-22T12:39:11.208Z,22.60
2023-05-22T12:41:38.548Z,22.63
2023-05-22T12:44:05.915Z,22.72
2023-05-22T12:46:33.734Z,22.78
2023-05-22T12:49:01.167Z,22.90
2023-05-22T12:51:31.837Z,23.04
2023-05-22T12:53:59.063Z,23.06
2023-05-22T12:56:26.499Z,22.98
2023-05-22T12:58:53.635Z,22.92
2023-05-22T13:01:21.835Z,22.84
2023-05-22T13:03:49.158Z,22.78
2023-05-22T13:06:16.639Z,22.71
2023-05-22T13:08:43.837Z,22.69
2023-05-22T13:11:11.331Z,22.68
2023-05-22T13:13:38.562Z,22.65
2023-05-22T13:16:06.036Z,22.64
2023-05-22T13:18:33.281Z,22.60
2023-05-22T13:21:00.725Z,22.58
2023-05-22T13:23:27.903Z,22.58
2023-05-22T13:25:55.298Z,22.59
2023-05-22T13:28:22.517Z,22.62
2023-05-22T13:30:49.700Z,22.63
2023-05-22T13:33:16.915Z,22.65
2023-05-22T13:35:44.753Z,22.58
2023-05-22T13:38:11.947Z,22.56
2023-05-22T13:40:39.216Z,22.55
2023-05-22T13:43:06.370Z,22.57
2023-05-22T13:45:33.874Z,22.57
2023-05-22T13:48:01.572Z,22.64
2023-05-22T13:50:28.890Z,22.65
2023-05-22T13:52:56.597Z,22.56
2023-05-22T13:55:24.000Z,22.52
2023-05-22T13:57:51.748Z,22.54
2023-05-22T14:00:19.750Z,22.56
2023-05-22T14:02:47.456Z,22.57
2023-05-22T14:05:15.167Z,22.55
2023-05-22T14:07:42.432Z,22.45
2023-05-22T14:10:10.313Z,22.41
2023-05-22T14:12:37.531Z,22.40
2023-05-22T14:15:05.382Z,22.42
2023-05-22T14:17:32.544Z,22.43
2023-05-22T14:19:59.981Z,22.43
2023-05-22T14:22:27.196Z,22.40
2023-05-22T14:24:54.359Z,22.44
2023-05-22T14:27:21.522Z,22.48
2023-05-22T14:29:48.726Z,22.50
2023-05-22T14:32:15.997Z,22.48
2023-05-22T14:34:43.192Z,22.34
2023-05-22T14:37:10.536Z,22.23
2023-05-22T14:39:37.671Z,22.16
2023-05-22T14:42:04.894Z,22.14
2023-05-22T14:44:32.087Z,22.14
2023-05-22T14:46:59.654Z,22.14
2023-05-22T14:49:26.939Z,22.12
2023-05-22T14:51:54.679Z,22.11
2023-05-22T14:54:23.702Z,22.07
2023-05-22T14:56:50.931Z,22.04
2023-05-22T14:59:18.639Z,21.97
2023-05-22T15:01:50.125Z,21.89
2023-05-22T15:04:18.040Z,21.89
2023-05-22T15:06:45.471Z,21.86
2023-05-22T15:09:12.602Z,21.86
2023-05-22T15:11:41.043Z,21.87
2023-05-22T15:14:08.211Z,21.85
2023-05-22T15:16:35.656Z,21.82
2023-05-22T15:19:03.411Z,21.78
2023-05-22T15:21:31.452Z,21.75
2023-05-22T15:23:59.016Z,21.73
2023-05-22T15:26:26.405Z,21.69
2023-05-22T15:28:53.537Z,21.70
2023-05-22T15:31:20.735Z,21.68
2023-05-22T15:33:47.959Z,21.65
2023-05-22T15:36:15.186Z,21.65
2023-05-22T15:38:42.641Z,21.66
2023-05-22T15:41:09.730Z,21.64
2023-05-22T15:43:36.950Z,21.63
2023-05-22T15:46:04.179Z,21.61
2023-05-22T15:48:32.954Z,21.58
2023-05-22T15:51:00.460Z,21.53
2023-05-22T15:53:27.639Z,21.49
2023-05-22T15:55:54.850Z,21.47
2023-05-22T15:58:22.289Z,21.45
2023-05-22T16:00:49.620Z,21.42
2023-05-22T16:03:16.974Z,21.37
2023-05-22T16:05:47.105Z,21.34
2023-05-22T16:08:15.509Z,21.30
2023-05-22T16:10:44.494Z,21.28
2023-05-22T16:13:12.174Z,21.27
2023-05-22T16:15:40.096Z,21.25
2023-05-22T16:18:08.044Z,21.23
2023-05-22T16:20:35.889Z,21.20
2023-05-22T16:23:03.167Z,21.16
2023-05-22T16:25:30.384Z,21.15
2023-05-22T16:27:57.726Z,21.11
2023-05-22T16:30:24.913Z,21.08
2023-05-22T16:32:52.158Z,21.04
2023-05-22T16:35:23.693Z,20.99
2023-05-22T16:37:51.027Z,20.94
2023-05-22T16:40:18.750Z,20.88
2023-05-22T16:42:46.032Z,20.83
2023-05-22T16:45:13.315Z,20.79
2023-05-22T16:47:40.690Z,20.75
2023-05-22T16:50:08.705Z,20.71
2023-05-22T16:52:36.770Z,20.67
2023-05-22T16:55:04.757Z,20.62
2023-05-22T16:57:31.977Z,20.58
2023-05-22T16:59:59.182Z,20.53
2023-05-22T17:02:26.473Z,20.49
2023-05-22T17:04:54.577Z,20.44
2023-05-22T17:07:21.993Z,20.39
2023-05-22T17:09:49.171Z,20.35
2023-05-22T17:12:16.491Z,20.29
2023-05-22T17:14:43.876Z,20.23
2023-05-22T17:17:11.123Z,20.19
2023-05-22T17:19:38.530Z,20.13
2023-05-22T17:22:05.979Z,20.06
2023-05-22T17:24:34.152Z,19.99
2023-05-22T17:27:03.463Z,19.93
2023-05-22T17:29:30.708Z,19.86
2023-05-22T17:31:57.984Z,19.80
2023-05-22T17:34:25.332Z,19.73
2023-05-22T17:36:52.589Z,19.65
2023-05-22T17:39:19.793Z,19.59
2023-05-22T17:41:46.967Z,19.52
2023-05-22T17:44:14.184Z,19.46
2023-05-22T17:46:41.652Z,19.36
2023-05-22T17:49:09.449Z,19.28
2023-05-22T17:51:37.375Z,19.19
2023-05-22T17:54:06.258Z,19.10
2023-05-22T17:56:33.477Z,19.01
2023-05-22T17:59:01.361Z,18.93
2023-05-22T18:01:29.586Z,18.84
2023-05-22T18:03:56.908Z,18.75
2023-05-22T18:06:24.528Z,18.67
2023-05-22T18:08:52.025Z,18.59
2023-05-22T18:11:19.356Z,18.52
2023-05-22T18:13:46.781Z,18.45
2023-05-22T18:16:14.468Z,18.39
2023-05-22T18:18:41.971Z,18.32
2023-05-22T18:21:09.144Z,18.27
2023-05-22T18:23:36.374Z,18.20
2023-05-22T18:26:03.577Z,18.16
2023-05-22T18:28:30.818Z,18.12
2023-05-22T18:30:58.095Z,18.08
2023-05-22T18:33:25.383Z,18.03
2023-05-22T18:35:52.768Z,17.97
2023-05-22T18:38:22.052Z,17.94
2023-05-22T18:40:49.240Z,17.90
2023-05-22T18:43:16.458Z,17.83
2023-05-22T18:45:43.814Z,17.78
2023-05-22T18:48:11.229Z,17.73
2023-05-22T18:50:38.943Z,17.66
2023-05-22T18:53:07.026Z,17.60
2023-05-22T18:55:34.426Z,17.52
2023-05-22T18:58:01.655Z,17.48
2023-05-22T19:00:28.852Z,17.46
2023-05-22T19:02:56.414Z,17.40
2023-05-22T19:05:23.664Z,17.38
2023-05-22T19:07:50.890Z,17.32
2023-05-22T19:10:18.126Z,17.28
2023-05-22T19:12:45.351Z,17.25
2023-05-22T19:15:12.529Z,17.20
2023-05-22T19:17:39.781Z,17.13
2023-05-22T19:20:07.758Z,17.11
2023-05-22T19:22:35.023Z,17.07
2023-05-22T19:25:02.921Z,17.01
2023-05-22T19:27:30.391Z,16.93
2023-05-22T19:29:57.606Z,16.87
2023-05-22T19:32:25.060Z,16.88
2023-05-22T19:34:52.277Z,16.92
2023-05-22T19:37:19.614Z,16.97
2023-05-22T19:39:48.450Z,17.00
2023-05-22T19:42:15.811Z,17.00
2023-05-22T19:44:43.032Z,17.02
2023-05-22T19:47:10.296Z,17.00
2023-05-22T19:49:37.985Z,16.97
2023-05-22T19:52:06.063Z,16.92
2023-05-22T19:54:35.376Z,16.86
2023-05-22T19:57:03.101Z,16.83
2023-05-22T19:59:30.573Z,16.72
2023-05-22T20:01:57.836Z,16.65
2023-05-22T20:04:25.103Z,16.61
2023-05-22T20:06:54.123Z,16.60
2023-05-22T20:09:21.653Z,16.59
2023-05-22T20:11:48.781Z,16.56
2023-05-22T20:14:16.086Z,16.49
2023-05-22T20:16:43.556Z,16.42
2023-05-22T20:19:10.971Z,16.35
2023-05-22T20:21:38.346Z,16.28
2023-05-22T20:24:12.074Z,16.23
2023-05-22T20:26:39.355Z,16.10
2023-05-22T20:29:06.599Z,15.96
2023-05-22T20:31:34.841Z,15.94
2023-05-22T20:34:02.406Z,15.96
2023-05-22T20:36:29.774Z,15.98
2023-05-22T20:38:58.544Z,15.92
2023-05-22T20:41:25.922Z,15.82
2023-05-22T20:43:54.526Z,15.71
2023-05-22T20:46:25.171Z,15.66
2023-05-22T20:48:52.523Z,15.67
2023-05-22T20:51:20.598Z,15.63
2023-05-22T20:53:48.417Z,15.49
2023-05-22T20:56:16.300Z,15.32
2023-05-22T20:58:43.660Z,15.23
2023-05-22T21:01:11.036Z,15.20
2023-05-22T21:03:38.324Z,15.20
2023-05-22T21:06:06.247Z,15.15
2023-05-22T21:08:34.231Z,15.12
2023-05-22T21:11:01.510Z,15.07
2023-05-22T21:13:28.725Z,14.96
2023-05-22T21:15:55.914Z,14.86
2023-05-22T21:18:24.298Z,14.78
2023-05-22T21:20:51.712Z,14.69
2023-05-22T21:23:18.920Z,14.59
2023-05-22T21:25:46.101Z,14.51
2023-05-22T21:28:13.280Z,14.45
2023-05-22T21:30:40.643Z,14.45
2023-05-22T21:33:08.231Z,14.51
2023-05-22T21:35:35.699Z,14.60
2023-05-22T21:38:02.912Z,14.70
2023-05-22T21:40:30.089Z,14.73
2023-05-22T21:42:57.275Z,14.73
2023-05-22T21:45:24.438Z,14.75
2023-05-22T21:47:51.675Z,14.81
2023-05-22T21:50:18.972Z,14.86
2023-05-22T21:52:46.152Z,14.86
2023-05-22T21:55:13.404Z,14.82
2023-05-22T21:57:41.118Z,14.77
2023-05-22T22:00:09.170Z,14.69
2023-05-22T22:02:36.431Z,14.61
2023-05-22T22:05:04.346Z,14.52
2023-05-22T22:07:31.533Z,14.44
2023-05-22T22:09:59.091Z,14.33
2023-05-22T22:12:26.516Z,14.25
2023-05-22T22:14:53.996Z,14.17
2023-05-22T22:17:23.701Z,14.11
2023-05-22T22:19:53.565Z,14.06
2023-05-22T22:22:22.827Z,14.01
2023-05-22T22:24:50.201Z,13.97
2023-05-22T22:27:17.711Z,13.93
2023-05-22T22:29:44.895Z,13.90
2023-05-22T22:32:13.058Z,13.87
2023-05-22T22:34:40.532Z,13.85
2023-05-22T22:37:07.929Z,13.84
2023-05-22T22:39:35.116Z,13.82
2023-05-22T22:42:05.162Z,13.81
2023-05-22T22:44:32.477Z,13.79
2023-05-22T22:47:01.852Z,13.78
2023-05-22T22:49:29.175Z,13.77
2023-05-22T22:51:56.617Z,13.78
2023-05-22T22:54:24.010Z,13.84
2023-05-22T22:56:51.499Z,13.90
2023-05-22T22:59:19.092Z,13.98
2023-05-22T23:01:46.417Z,14.09
2023-05-22T23:04:14.016Z,14.18
2023-05-22T23:06:44.701Z,14.27
2023-05-22T23:09:11.894Z,14.35
2023-05-22T23:11:39.128Z,14.42
2023-05-22T23:14:07.618Z,14.46
2023-05-22T23:16:41.066Z,14.49
2023-05-22T23:19:09.405Z,14.53
2023-05-22T23:21:36.909Z,14.56
2023-05-22T23:24:04.547Z,14.60
2023-05-22T23:26:32.114Z,14.63
2023-05-22T23:28:59.648Z,14.65
2023-05-22T23:31:30.744Z,14.67
2023-05-22T23:33:58.635Z,14.68
2023-05-22T23:36:25.969Z,14.66
2023-05-22T23:38:53.136Z,14.65
2023-05-22T23:41:20.293Z,14.63
2023-05-22T23:43:47.717Z,14.61
2023-05-22T23:46:14.993Z,14.60
2023-05-22T23:48:42.670Z,14.59
2023-05-22T23:51:10.033Z,14.58
2023-05-22T23:53:37.549Z,14.57
2023-05-22T23:56:04.745Z,14.56
2023-05-22T23:58:32.326Z,14.56
